Time;durP1;ratioP1;P1;durP2;ratioP2;P2;SDS_P1;SDS_P2;PMS_P1;PMS_P2;Temp;Humidity;BMP_temperature;BMP_pressure;BME280_temperature;BME280_humidity;BME280_pressure;Samples;Min_cycle;Max_cycle;Signal;HPM_P1;HPM_P2
2023/05/20 00:00:10;;;;;;;7.80;3.60;;;11.00;99.90;;;;;;5068656;28;20055;-58
2023/05/20 00:02:36;;;;;;;11.55;4.40;;;10.90;99.90;;;;;;5068360;28;20055;-62
2023/05/20 00:05:02;;;;;;;8.00;4.18;;;10.90;99.90;;;;;;5068476;28;20395;-61
2023/05/20 00:07:28;;;;;;;10.30;4.00;;;10.90;99.90;;;;;;5068352;28;20048;-61
2023/05/20 00:09:54;;;;;;;8.30;3.88;;;10.90;99.90;;;;;;5070045;28;20040;-60
2023/05/20 00:12:19;;;;;;;9.45;4.03;;;10.80;99.90;;;;;;5068264;28;20041;-62
2023/05/20 00:14:45;;;;;;;9.50;3.85;;;10.80;99.90;;;;;;5068640;28;20430;-60
2023/05/20 00:17:10;;;;;;;12.55;4.00;;;10.80;99.90;;;;;;5069557;28;20411;-59
2023/05/20 00:19:36;;;;;;;7.30;3.50;;;10.80;99.90;;;;;;5068239;28;20072;-62
2023/05/20 00:22:02;;;;;;;8.57;4.10;;;10.80;99.90;;;;;;5067047;28;20041;-61
2023/05/20 00:24:27;;;;;;;7.18;3.75;;;10.80;99.90;;;;;;5068132;28;20040;-61
2023/05/20 00:26:53;;;;;;;9.27;4.32;;;10.80;99.90;;;;;;5068222;28;20044;-62
2023/05/20 00:29:20;;;;;;;9.50;3.80;;;10.80;99.90;;;;;;5069738;28;20386;-62
2023/05/20 00:31:46;;;;;;;9.02;3.60;;;10.80;99.90;;;;;;5069489;28;20040;-61
2023/05/20 00:34:12;;;;;;;10.15;3.90;;;10.80;99.90;;;;;;5068035;28;20071;-59
2023/05/20 00:36:38;;;;;;;8.50;4.05;;;10.80;99.90;;;;;;5069407;28;20040;-60
2023/05/20 00:39:03;;;;;;;9.02;4.72;;;10.80;99.90;;;;;;5068197;28;20045;-62
2023/05/20 00:41:29;;;;;;;10.35;4.20;;;10.80;99.90;;;;;;5069278;28;20143;-60
2023/05/20 00:43:55;;;;;;;11.88;4.00;;;10.80;99.90;;;;;;5068303;28;20044;-60
2023/05/20 00:46:27;;;;;;;8.63;4.32;;;10.90;99.90;;;;;;5067976;28;20047;-61
2023/05/20 00:48:52;;;;;;;7.25;4.00;;;10.80;99.90;;;;;;5069323;28;20040;-60
2023/05/20 00:51:19;;;;;;;8.23;4.07;;;10.80;99.90;;;;;;5069491;28;20447;-60
2023/05/20 00:53:45;;;;;;;8.10;3.90;;;10.80;99.90;;;;;;5069191;28;20052;-61
2023/05/20 00:56:11;;;;;;;8.77;4.10;;;10.80;99.90;;;;;;5073613;28;20460;-59
2023/05/20 00:58:38;;;;;;;10.98;4.18;;;10.80;99.90;;;;;;5073276;28;20040;-60
2023/05/20 01:01:05;;;;;;;9.20;4.38;;;10.80;99.90;;;;;;5071668;28;20679;-61
2023/05/20 01:03:31;;;;;;;7.45;4.03;;;10.80;99.90;;;;;;5070945;28;20392;-62
2023/05/20 01:05:57;;;;;;;10.55;4.03;;;10.80;99.90;;;;;;5072465;28;20048;-59
2023/05/20 01:08:24;;;;;;;7.93;4.18;;;10.80;99.90;;;;;;5073262;28;20543;-61
2023/05/20 01:11:18;;;;;;;10.73;4.60;;;10.80;99.90;;;;;;5073022;28;20037;-61
2023/05/20 01:13:54;;;;;;;6.50;4.05;;;10.80;99.90;;;;;;5071465;28;20071;-62
2023/05/20 01:16:23;;;;;;;6.93;4.43;;;10.80;99.90;;;;;;5071671;28;20032;-62
2023/05/20 01:18:54;;;;;;;9.52;4.00;;;10.80;99.90;;;;;;5055602;28;20458;-59
2023/05/20 01:21:20;;;;;;;7.72;4.13;;;10.70;99.90;;;;;;5071124;28;20044;-58
2023/05/20 01:23:47;;;;;;;10.80;4.55;;;10.70;99.90;;;;;;5072827;28;20106;-62
2023/05/20 01:26:12;;;;;;;9.02;4.00;;;10.70;99.90;;;;;;5072534;28;20064;-62
2023/05/20 01:28:38;;;;;;;10.80;4.28;;;10.70;99.90;;;;;;5071554;28;20133;-62
2023/05/20 01:31:10;;;;;;;10.27;4.30;;;10.70;99.90;;;;;;5072647;28;20033;-60
2023/05/20 01:33:38;;;;;;;10.20;4.32;;;10.80;99.90;;;;;;5071204;28;20130;-63
2023/05/20 01:36:05;;;;;;;8.40;4.28;;;10.80;99.90;;;;;;5071243;28;20139;-60
2023/05/20 01:38:31;;;;;;;10.85;3.72;;;10.70;99.90;;;;;;5072839;28;20040;-61
2023/05/20 01:40:58;;;;;;;7.97;4.15;;;10.80;99.90;;;;;;5072486;28;20054;-60
2023/05/20 01:43:25;;;;;;;9.13;4.22;;;10.80;99.90;;;;;;5071283;28;20037;-63
2023/05/20 01:45:51;;;;;;;8.60;4.28;;;10.80;99.90;;;;;;5072453;28;20086;-61
2023/05/20 01:48:17;;;;;;;8.48;3.88;;;10.80;99.90;;;;;;5072384;28;20024;-61
2023/05/20 01:50:42;;;;;;;10.50;4.25;;;10.80;99.90;;;;;;5072175;28;20035;-60
2023/05/20 01:53:08;;;;;;;7.53;3.55;;;10.80;99.90;;;;;;5072032;28;20083;-60
2023/05/20 01:55:34;;;;;;;9.27;4.50;;;10.80;99.90;;;;;;5072089;28;20044;-62
2023/05/20 01:58:01;;;;;;;6.80;3.97;;;10.80;99.90;;;;;;5071208;28;20569;-61
2023/05/20 02:00:27;;;;;;;10.07;4.50;;;10.70;99.90;;;;;;5070882;28;20123;-62
2023/05/20 02:02:52;;;;;;;7.18;4.25;;;10.70;99.90;;;;;;5071142;28;20115;-61
2023/05/20 02:05:18;;;;;;;9.82;4.18;;;10.70;99.90;;;;;;5070713;28;20093;-61
2023/05/20 02:07:43;;;;;;;8.52;4.20;;;10.70;99.90;;;;;;5070592;28;20070;-60
2023/05/20 02:10:09;;;;;;;9.50;4.20;;;10.70;99.90;;;;;;5070955;28;20048;-63
2023/05/20 02:12:35;;;;;;;8.15;4.00;;;10.70;99.90;;;;;;5071827;28;20048;-62
2023/05/20 02:15:01;;;;;;;8.02;3.97;;;10.70;99.90;;;;;;5071894;28;20029;-63
2023/05/20 02:17:26;;;;;;;8.80;4.00;;;10.70;99.90;;;;;;5070581;28;20068;-62
2023/05/20 02:19:52;;;;;;;10.38;4.78;;;10.70;99.90;;;;;;5071996;28;20032;-63
2023/05/20 02:22:18;;;;;;;7.50;3.55;;;10.70;99.90;;;;;;5071622;28;20032;-64
2023/05/20 02:24:43;;;;;;;8.38;3.75;;;10.70;99.90;;;;;;5070281;28;20045;-64
2023/05/20 02:27:09;;;;;;;8.35;3.80;;;10.70;99.90;;;;;;5070430;28;20056;-63
2023/05/20 02:29:35;;;;;;;11.30;4.10;;;10.70;99.90;;;;;;5071585;28;20111;-63
2023/05/20 02:32:01;;;;;;;9.27;3.80;;;10.70;99.90;;;;;;5070295;28;20599;-62
2023/05/20 02:34:28;;;;;;;9.05;3.92;;;10.70;99.90;;;;;;5071234;28;20076;-63
2023/05/20 02:36:55;;;;;;;9.85;4.00;;;10.70;99.90;;;;;;5053229;28;20064;-63
2023/05/20 02:39:21;;;;;;;10.25;4.43;;;10.70;99.90;;;;;;5071672;28;20039;-64
2023/05/20 02:41:47;;;;;;;7.45;3.67;;;10.70;99.90;;;;;;5071500;28;20663;-62
2023/05/20 02:44:12;;;;;;;7.35;3.60;;;10.70;99.90;;;;;;5070147;28;20152;-63
2023/05/20 02:46:38;;;;;;;10.80;4.20;;;10.60;99.90;;;;;;5071246;28;20047;-64
2023/05/20 02:49:04;;;;;;;5.75;3.45;;;10.60;99.90;;;;;;5069720;28;20055;-64
2023/05/20 02:51:32;;;;;;;6.90;3.78;;;10.60;99.90;;;;;;5070993;28;20063;-62
2023/05/20 02:53:57;;;;;;;8.00;3.65;;;10.60;99.90;;;;;;5071088;28;20040;-66
2023/05/20 02:56:23;;;;;;;8.73;3.90;;;10.60;99.90;;;;;;5071400;28;20025;-64
2023/05/20 02:58:49;;;;;;;6.97;3.38;;;10.60;99.90;;;;;;5070920;28;20028;-62
2023/05/20 03:01:15;;;;;;;9.35;4.32;;;10.70;99.90;;;;;;5070018;28;20258;-63
2023/05/20 03:03:41;;;;;;;6.35;4.30;;;10.60;99.90;;;;;;5070838;28;20044;-63
2023/05/20 03:06:06;;;;;;;9.63;3.35;;;10.60;99.90;;;;;;5069402;28;20048;-64
2023/05/20 03:08:35;;;;;;;7.97;3.53;;;10.70;99.90;;;;;;5069457;28;20067;-62
2023/05/20 03:11:01;;;;;;;8.07;3.95;;;10.60;99.90;;;;;;5069356;28;20530;-63
2023/05/20 03:13:27;;;;;;;7.18;3.67;;;10.60;99.90;;;;;;5070740;28;20068;-63
2023/05/20 03:15:52;;;;;;;9.43;4.13;;;10.60;99.90;;;;;;5070847;28;20028;-61
2023/05/20 03:18:18;;;;;;;8.93;3.67;;;10.60;99.90;;;;;;5068200;28;20040;-62
2023/05/20 03:20:45;;;;;;;9.32;3.80;;;10.70;99.90;;;;;;5070446;28;20033;-62
2023/05/20 03:23:11;;;;;;;7.07;4.18;;;10.70;99.90;;;;;;5068993;28;20056;-64
2023/05/20 03:25:38;;;;;;;8.27;3.72;;;10.70;99.90;;;;;;5069734;28;20036;-62
2023/05/20 03:28:05;;;;;;;9.20;3.60;;;10.70;99.90;;;;;;5069218;28;20380;-64
2023/05/20 03:30:31;;;;;;;6.88;3.42;;;10.70;99.90;;;;;;5070516;28;20478;-64
2023/05/20 03:32:57;;;;;;;7.57;3.50;;;10.60;99.90;;;;;;5070208;28;20044;-63
2023/05/20 03:35:23;;;;;;;7.85;4.00;;;10.60;99.90;;;;;;5070384;28;20044;-64
2023/05/20 03:37:50;;;;;;;7.03;3.40;;;10.60;99.90;;;;;;5052554;28;20062;-62
2023/05/20 03:40:16;;;;;;;8.45;4.20;;;10.60;99.90;;;;;;5070346;28;20032;-64
2023/05/20 03:42:41;;;;;;;5.97;3.42;;;10.60;99.90;;;;;;5070282;28;20051;-63
2023/05/20 03:45:08;;;;;;;6.22;3.50;;;10.60;99.90;;;;;;5070092;28;20491;-62
2023/05/20 03:47:33;;;;;;;7.45;3.70;;;10.60;99.90;;;;;;5070121;28;20028;-64
2023/05/20 03:49:59;;;;;;;8.13;3.30;;;10.60;99.90;;;;;;5068700;28;20122;-64
2023/05/20 03:52:25;;;;;;;8.85;3.45;;;10.60;99.90;;;;;;5069844;28;20042;-65
2023/05/20 03:54:52;;;;;;;6.32;3.38;;;10.60;99.90;;;;;;5069010;28;20049;-63
2023/05/20 03:57:18;;;;;;;6.25;3.22;;;10.60;99.90;;;;;;5068390;28;20120;-63
2023/05/20 03:59:44;;;;;;;4.95;3.17;;;10.60;99.90;;;;;;5069926;28;20062;-63
2023/05/20 04:02:10;;;;;;;7.68;3.10;;;10.60;99.90;;;;;;5052237;28;20070;-63
2023/05/20 04:04:36;;;;;;;8.40;3.65;;;10.60;99.90;;;;;;5068542;28;20136;-63
2023/05/20 04:07:03;;;;;;;9.40;3.85;;;10.60;99.90;;;;;;5069953;28;20103;-62
2023/05/20 04:09:29;;;;;;;7.20;3.33;;;10.60;99.90;;;;;;5068316;28;20084;-63
2023/05/20 04:11:55;;;;;;;8.98;3.30;;;10.60;99.90;;;;;;5070113;28;20494;-64
2023/05/20 04:14:21;;;;;;;6.40;3.60;;;10.60;99.90;;;;;;5068350;28;20024;-63
2023/05/20 04:16:49;;;;;;;8.02;3.35;;;10.60;99.90;;;;;;5068142;28;20400;-64
2023/05/20 04:19:14;;;;;;;5.43;3.00;;;10.60;99.90;;;;;;5068353;28;20041;-63
2023/05/20 04:21:42;;;;;;;6.35;3.30;;;10.60;99.90;;;;;;5069532;28;20051;-63
2023/05/20 04:24:07;;;;;;;4.97;3.05;;;10.60;99.90;;;;;;5068303;28;20440;-63
2023/05/20 04:26:34;;;;;;;4.70;2.80;;;10.60;99.90;;;;;;5068259;28;20146;-62
2023/05/20 04:29:02;;;;;;;5.68;2.95;;;10.60;99.90;;;;;;5068301;28;20062;-62
2023/05/20 04:31:29;;;;;;;4.95;3.03;;;10.60;99.90;;;;;;5067569;28;20040;-64
2023/05/20 04:33:55;;;;;;;6.72;3.63;;;10.60;99.90;;;;;;5069182;28;20048;-62
2023/05/20 04:36:27;;;;;;;6.82;3.10;;;10.60;99.90;;;;;;5069714;28;20474;-63
2023/05/20 04:38:56;;;;;;;4.18;2.55;;;10.70;99.90;;;;;;5069605;28;20395;-63
2023/05/20 04:41:22;;;;;;;5.28;3.03;;;10.70;99.90;;;;;;5068580;28;20064;-63
2023/05/20 04:43:49;;;;;;;5.03;2.72;;;10.70;99.90;;;;;;5069169;28;20048;-64
2023/05/20 04:46:15;;;;;;;3.88;2.65;;;10.70;99.90;;;;;;5068091;28;20044;-65
2023/05/20 04:48:42;;;;;;;6.63;2.67;;;10.70;99.90;;;;;;5068126;28;20131;-62
2023/05/20 04:51:08;;;;;;;5.20;2.78;;;10.80;99.90;;;;;;5051513;28;20044;-61
2023/05/20 04:53:34;;;;;;;6.32;2.90;;;10.80;99.90;;;;;;5067852;28;20036;-61
2023/05/20 04:56:00;;;;;;;4.68;2.58;;;10.90;99.90;;;;;;5069790;28;20033;-62
2023/05/20 04:58:28;;;;;;;5.30;2.75;;;11.00;99.90;;;;;;5069000;28;20040;-65
2023/05/20 05:00:55;;;;;;;5.35;2.70;;;11.10;99.90;;;;;;5069019;28;20068;-61
2023/05/20 05:03:21;;;;;;;5.03;3.10;;;11.20;99.90;;;;;;5068214;28;20044;-62
2023/05/20 05:05:46;;;;;;;3.33;2.30;;;11.30;99.90;;;;;;5067999;28;20043;-62
2023/05/20 05:08:12;;;;;;;4.43;2.40;;;11.40;99.90;;;;;;5067990;28;20040;-60
2023/05/20 05:10:38;;;;;;;4.22;2.33;;;11.50;99.90;;;;;;5069263;28;20040;-60
2023/05/20 05:13:03;;;;;;;6.18;3.05;;;11.60;99.90;;;;;;5068826;28;20042;-61
2023/05/20 05:15:29;;;;;;;4.35;2.53;;;11.70;99.90;;;;;;5067917;28;20457;-59
2023/05/20 05:17:55;;;;;;;9.88;3.42;;;11.80;99.90;;;;;;5068944;28;20032;-61
2023/05/20 05:20:21;;;;;;;4.82;2.40;;;11.90;99.90;;;;;;5069244;28;20032;-60
2023/05/20 05:22:49;;;;;;;4.32;2.40;;;12.00;99.90;;;;;;5068052;28;20056;-61
2023/05/20 05:25:15;;;;;;;3.88;2.10;;;12.10;99.90;;;;;;5068838;28;20036;-62
2023/05/20 05:27:41;;;;;;;3.95;2.58;;;12.20;99.90;;;;;;5067659;28;20053;-60
2023/05/20 05:30:07;;;;;;;3.95;2.03;;;12.30;99.90;;;;;;5067426;28;20052;-61
2023/05/20 05:32:33;;;;;;;5.70;2.17;;;12.40;99.90;;;;;;5068948;28;20048;-61
2023/05/20 05:34:59;;;;;;;4.88;2.30;;;12.50;99.90;;;;;;5068962;28;20376;-63
2023/05/20 05:37:25;;;;;;;5.07;2.10;;;12.60;99.90;;;;;;5068723;28;20044;-62
2023/05/20 05:39:51;;;;;;;3.40;2.05;;;12.70;99.90;;;;;;5068018;28;20036;-59
2023/05/20 05:42:16;;;;;;;2.95;1.73;;;12.80;99.90;;;;;;5072331;28;20102;-62
2023/05/20 05:44:43;;;;;;;3.78;1.80;;;12.90;99.90;;;;;;5072459;28;20044;-61
2023/05/20 05:47:08;;;;;;;2.83;1.95;;;13.00;99.90;;;;;;5072462;28;20155;-60
2023/05/20 05:49:34;;;;;;;7.75;2.28;;;13.10;99.90;;;;;;5072697;28;20098;-59
2023/05/20 05:52:00;;;;;;;4.03;1.73;;;13.20;99.90;;;;;;5072423;28;20040;-62
2023/05/20 05:54:26;;;;;;;3.00;1.80;;;13.30;99.90;;;;;;5070612;28;20036;-63
2023/05/20 05:56:52;;;;;;;4.43;2.05;;;13.40;99.90;;;;;;5072204;28;20532;-60
2023/05/20 05:59:18;;;;;;;2.28;1.70;;;13.50;99.90;;;;;;5071976;28;20115;-62
2023/05/20 06:01:44;;;;;;;3.00;1.80;;;13.60;99.90;;;;;;5072131;28;20491;-60
2023/05/20 06:04:10;;;;;;;3.47;1.67;;;13.70;99.90;;;;;;5072042;28;20052;-61
2023/05/20 06:06:36;;;;;;;3.33;2.15;;;13.80;99.90;;;;;;5070933;28;20058;-60
2023/05/20 06:09:01;;;;;;;4.07;1.67;;;13.90;99.90;;;;;;5071983;28;20792;-61
2023/05/20 06:11:27;;;;;;;4.65;1.85;;;14.10;99.90;;;;;;5071848;28;20025;-63
2023/05/20 06:13:52;;;;;;;2.03;1.52;;;14.20;99.90;;;;;;5070527;28;20048;-63
2023/05/20 06:16:18;;;;;;;3.40;1.83;;;14.30;99.90;;;;;;5070551;28;20475;-62
2023/05/20 06:18:50;;;;;;;4.68;1.83;;;14.40;99.90;;;;;;5071777;28;20040;-61
2023/05/20 06:21:16;;;;;;;2.70;1.80;;;14.50;99.90;;;;;;5070408;28;20040;-62
2023/05/20 06:23:41;;;;;;;2.38;1.77;;;14.60;99.90;;;;;;5070835;28;20052;-61
2023/05/20 06:26:07;;;;;;;2.22;1.58;;;14.70;99.90;;;;;;5071607;28;20036;-61
2023/05/20 06:28:33;;;;;;;3.33;1.60;;;14.80;99.90;;;;;;5071998;28;20037;-61
2023/05/20 06:30:59;;;;;;;2.53;1.38;;;14.90;99.90;;;;;;5070407;28;20114;-61
2023/05/20 06:33:26;;;;;;;4.30;1.80;;;15.00;99.90;;;;;;5069943;28;20052;-61
2023/05/20 06:35:55;;;;;;;2.97;1.50;;;15.00;99.90;;;;;;5070355;28;20567;-62
2023/05/20 06:38:21;;;;;;;3.15;1.60;;;15.10;99.90;;;;;;5070456;28;20072;-61
2023/05/20 06:40:48;;;;;;;3.78;1.42;;;15.20;99.90;;;;;;5071167;28;20066;-62
2023/05/20 06:43:14;;;;;;;3.45;1.73;;;15.30;99.90;;;;;;5070389;28;20499;-61
2023/05/20 06:45:40;;;;;;;3.05;1.50;;;15.40;99.90;;;;;;5069658;28;20060;-62
2023/05/20 06:48:06;;;;;;;2.03;1.42;;;15.50;99.90;;;;;;5069975;28;20036;-62
2023/05/20 06:50:32;;;;;;;5.15;1.65;;;15.60;99.90;;;;;;5071250;28;20439;-61
2023/05/20 06:52:57;;;;;;;3.60;1.50;;;15.70;99.90;;;;;;5069657;28;20075;-60
2023/05/20 06:55:23;;;;;;;3.47;1.75;;;15.80;99.90;;;;;;5070912;28;20537;-61
2023/05/20 06:57:48;;;;;;;2.90;1.58;;;15.90;99.90;;;;;;5070894;28;20033;-60
2023/05/20 07:00:14;;;;;;;3.03;1.55;;;16.00;99.90;;;;;;5069790;28;20051;-63
2023/05/20 07:02:41;;;;;;;2.92;1.55;;;16.00;99.90;;;;;;5069767;28;20037;-59
2023/05/20 07:05:07;;;;;;;2.83;1.75;;;16.10;99.90;;;;;;5069616;28;20119;-61
2023/05/20 07:07:32;;;;;;;4.15;2.00;;;16.20;99.90;;;;;;5070882;28;20048;-62
2023/05/20 07:09:58;;;;;;;5.93;1.65;;;16.30;99.90;;;;;;5069364;28;20036;-60
2023/05/20 07:12:23;;;;;;;2.08;1.70;;;16.40;99.90;;;;;;5070913;28;20040;-61
2023/05/20 07:14:49;;;;;;;1.70;1.45;;;16.50;99.90;;;;;;5069304;28;20044;-62
2023/05/20 07:17:15;;;;;;;4.15;1.70;;;16.60;99.90;;;;;;5069391;28;20052;-61
2023/05/20 07:19:41;;;;;;;3.58;1.83;;;16.60;99.90;;;;;;5070603;28;20035;-61
2023/05/20 07:22:07;;;;;;;2.90;1.65;;;16.70;99.90;;;;;;5070540;28;20045;-63
2023/05/20 07:24:32;;;;;;;3.60;1.58;;;16.80;99.80;;;;;;5069294;28;20043;-62
2023/05/20 07:26:58;;;;;;;3.13;2.00;;;16.90;99.90;;;;;;5070788;28;20473;-63
2023/05/20 07:29:24;;;;;;;2.67;1.65;;;17.00;99.80;;;;;;5069165;28;20040;-61
2023/05/20 07:31:50;;;;;;;3.25;1.70;;;17.10;99.90;;;;;;5070591;28;20491;-61
2023/05/20 07:34:15;;;;;;;3.65;1.77;;;17.10;99.90;;;;;;5068395;28;20058;-63
2023/05/20 07:36:42;;;;;;;2.97;1.70;;;17.20;99.30;;;;;;5069265;28;20082;-60
2023/05/20 07:39:09;;;;;;;3.13;1.80;;;17.40;99.40;;;;;;5068746;28;20036;-59
2023/05/20 07:41:38;;;;;;;5.47;1.70;;;17.60;99.60;;;;;;5068741;28;20072;-61
2023/05/20 07:44:05;;;;;;;2.88;1.40;;;17.70;99.60;;;;;;5070147;28;20437;-63
2023/05/20 07:46:31;;;;;;;3.33;1.70;;;17.90;99.20;;;;;;5070038;28;20624;-62
2023/05/20 07:48:57;;;;;;;2.53;1.52;;;18.00;98.80;;;;;;5070171;28;20047;-60
2023/05/20 07:51:22;;;;;;;3.97;1.90;;;18.10;98.80;;;;;;5068637;28;20092;-60
2023/05/20 07:53:48;;;;;;;4.70;1.90;;;18.20;98.50;;;;;;5068668;28;20040;-61
2023/05/20 07:56:14;;;;;;;2.10;1.70;;;18.30;97.90;;;;;;5069946;28;20040;-62
2023/05/20 07:58:41;;;;;;;2.85;1.52;;;18.30;97.60;;;;;;5069114;28;20040;-62
2023/05/20 08:01:08;;;;;;;3.00;1.90;;;18.30;97.20;;;;;;5070051;28;20440;-62
2023/05/20 08:03:37;;;;;;;4.55;1.70;;;18.30;97.40;;;;;;5069358;28;20399;-63
2023/05/20 08:06:02;;;;;;;3.22;1.65;;;18.40;97.20;;;;;;5068878;28;20127;-63
2023/05/20 08:08:29;;;;;;;4.88;1.80;;;18.40;97.10;;;;;;5069614;28;20128;-60
2023/05/20 08:10:55;;;;;;;3.53;1.58;;;18.50;96.90;;;;;;5068542;28;20075;-61
2023/05/20 08:13:21;;;;;;;3.85;1.73;;;18.50;96.40;;;;;;5069581;28;20667;-61
2023/05/20 08:15:47;;;;;;;2.53;1.52;;;18.70;96.90;;;;;;5069662;28;20060;-60
2023/05/20 08:18:14;;;;;;;8.20;3.10;;;18.80;96.60;;;;;;5069841;28;20589;-64
2023/05/20 08:20:41;;;;;;;3.28;1.73;;;18.90;96.80;;;;;;5068326;28;20098;-62
2023/05/20 08:23:07;;;;;;;4.35;1.70;;;19.00;96.50;;;;;;5068200;28;20067;-61
2023/05/20 08:25:32;;;;;;;2.53;1.58;;;19.10;96.20;;;;;;5068154;28;20040;-64
2023/05/20 08:28:02;;;;;;;2.22;1.77;;;19.20;96.40;;;;;;5069760;28;20135;-63
2023/05/20 08:30:29;;;;;;;3.75;2.15;;;19.20;95.60;;;;;;5069620;28;20107;-62
2023/05/20 08:32:55;;;;;;;3.75;1.50;;;19.20;95.40;;;;;;5069446;28;20044;-62
2023/05/20 08:35:21;;;;;;;2.83;1.58;;;19.20;95.00;;;;;;5067841;28;20065;-62
2023/05/20 08:37:47;;;;;;;2.25;1.70;;;19.30;95.00;;;;;;5069241;28;20041;-61
2023/05/20 08:40:13;;;;;;;3.28;1.75;;;19.30;95.10;;;;;;5069595;28;20037;-61
2023/05/20 08:42:43;;;;;;;3.17;1.73;;;19.40;95.40;;;;;;5067996;28;20040;-62
2023/05/20 08:45:13;;;;;;;4.18;1.52;;;19.50;94.20;;;;;;5069491;28;20101;-63
2023/05/20 08:47:44;;;;;;;2.70;1.60;;;19.60;94.20;;;;;;5069285;28;20039;-60
2023/05/20 08:50:11;;;;;;;3.13;1.70;;;19.60;94.00;;;;;;5069398;28;20036;-61
2023/05/20 08:52:44;;;;;;;6.60;1.67;;;19.70;93.90;;;;;;5069403;28;20036;-60
2023/05/20 08:55:21;;;;;;;2.35;1.40;;;19.80;93.60;;;;;;5069621;28;20106;-63
2023/05/20 08:57:53;;;;;;;3.83;1.73;;;19.80;93.60;;;;;;5068201;28;20036;-62
2023/05/20 09:00:20;;;;;;;4.70;1.40;;;20.00;92.90;;;;;;5068261;28;20041;-61
2023/05/20 09:02:46;;;;;;;3.70;1.75;;;20.10;93.00;;;;;;5067727;28;20044;-63
2023/05/20 09:05:13;;;;;;;1.80;1.42;;;20.20;92.40;;;;;;5069448;28;20055;-60
2023/05/20 09:07:41;;;;;;;3.17;2.13;;;20.20;92.10;;;;;;5067859;28;20040;-63
2023/05/20 09:10:08;;;;;;;4.00;1.60;;;20.30;91.80;;;;;;5069071;28;20390;-62
2023/05/20 09:12:34;;;;;;;2.58;1.70;;;20.30;91.50;;;;;;5067705;28;20086;-61
2023/05/20 09:15:00;;;;;;;6.10;1.73;;;20.40;91.10;;;;;;5068251;28;20036;-60
2023/05/20 09:17:26;;;;;;;2.60;1.50;;;20.30;91.10;;;;;;5072924;28;20075;-61
2023/05/20 09:19:55;;;;;;;4.50;1.58;;;20.40;91.00;;;;;;5073056;28;20112;-61
2023/05/20 09:22:28;;;;;;;3.25;1.70;;;20.60;91.00;;;;;;5054999;28;20135;-62
2023/05/20 09:24:54;;;;;;;4.07;1.75;;;20.60;90.80;;;;;;5071839;28;20507;-62
2023/05/20 09:27:20;;;;;;;3.53;2.17;;;20.70;90.70;;;;;;5071306;28;20040;-62
2023/05/20 09:29:47;;;;;;;5.10;1.73;;;20.70;91.10;;;;;;5071615;28;20483;-62
2023/05/20 09:32:14;;;;;;;3.22;1.77;;;20.80;90.70;;;;;;5072640;28;20068;-62
2023/05/20 09:34:41;;;;;;;3.63;1.80;;;20.80;90.50;;;;;;5072548;28;20064;-63
2023/05/20 09:37:08;;;;;;;5.18;1.73;;;20.70;89.80;;;;;;5071241;28;20143;-62
2023/05/20 09:40:00;;;;;;;4.10;1.70;;;20.50;88.60;;;;;;5071556;28;20080;-62
2023/05/20 09:43:02;;;;;;;6.28;1.63;;;20.50;90.00;;;;;;5071477;28;20460;-60
2023/05/20 09:45:28;;;;;;;2.28;1.63;;;20.80;90.00;;;;;;4994138;28;20034;-63
2023/05/20 09:47:55;;;;;;;2.60;1.80;;;21.10;89.70;;;;;;4993935;28;20038;-64
2023/05/20 09:50:22;;;;;;;3.50;1.55;;;21.20;87.30;;;;;;5010164;28;20042;-63
2023/05/20 09:52:49;;;;;;;4.95;2.10;;;21.30;86.50;;;;;;5010389;28;20049;-63
2023/05/20 09:55:16;;;;;;;3.55;1.60;;;21.30;86.80;;;;;;4993821;28;20041;-61
2023/05/20 09:57:42;;;;;;;4.50;1.65;;;21.60;88.40;;;;;;4993927;28;20512;-63
2023/05/20 10:00:09;;;;;;;2.53;1.55;;;21.60;86.60;;;;;;5026578;28;20089;-61
2023/05/20 10:02:35;;;;;;;3.67;1.70;;;21.70;86.40;;;;;;5010046;28;20076;-61
2023/05/20 10:05:04;;;;;;;5.20;1.67;;;21.80;85.90;;;;;;5009985;28;20493;-64
2023/05/20 10:07:57;;;;;;;3.97;2.17;;;21.90;84.80;;;;;;4993461;28;20053;-63
2023/05/20 10:10:22;;;;;;;;;;;22.10;82.40;;;;;;5010257;28;20026;-62
2023/05/20 10:13:06;;;;;;;5.35;1.85;;;22.10;83.40;;;;;;4993885;28;20296;-62
2023/05/20 10:15:48;;;;;;;3.28;1.48;;;22.10;82.10;;;;;;4993162;28;20045;-63
2023/05/20 10:18:22;;;;;;;2.42;1.65;;;22.10;81.60;;;;;;4993277;28;20069;-63
2023/05/20 10:20:50;;;;;;;2.25;1.50;;;22.10;81.60;;;;;;5070673;28;20059;-65
2023/05/20 10:23:23;;;;;;;5.05;1.40;;;22.00;81.40;;;;;;5071882;28;20126;-63
2023/05/20 10:25:51;;;;;;;2.97;1.60;;;21.90;83.10;;;;;;5069832;28;20086;-63
2023/05/20 10:28:28;;;;;;;4.80;1.70;;;21.90;81.60;;;;;;5070463;28;20105;-62
2023/05/20 10:30:54;;;;;;;4.25;1.67;;;21.80;81.10;;;;;;5070635;28;20055;-64
2023/05/20 10:33:19;;;;;;;2.58;1.63;;;21.60;81.00;;;;;;5070366;28;20662;-64
2023/05/20 10:35:52;;;;;;;3.20;1.85;;;21.60;81.30;;;;;;5070354;28;20051;-64
2023/05/20 10:38:20;;;;;;;3.20;1.38;;;21.30;79.60;;;;;;5070374;28;20040;-62
2023/05/20 10:40:46;;;;;;;3.35;1.38;;;21.10;81.50;;;;;;5053210;28;20037;-61
2023/05/20 10:43:24;;;;;;;6.13;1.73;;;21.00;82.10;;;;;;5071532;28;20403;-61
2023/05/20 10:45:52;;;;;;;2.60;1.25;;;21.20;82.00;;;;;;5070007;28;20434;-62
2023/05/20 10:48:24;;;;;;;3.58;1.27;;;21.40;81.10;;;;;;5070482;28;20523;-64
2023/05/20 10:50:53;;;;;;;3.03;1.65;;;21.20;79.10;;;;;;5070551;28;20398;-64
2023/05/20 10:53:22;;;;;;;3.85;1.60;;;21.00;80.20;;;;;;5071625;28;20059;-63
2023/05/20 10:55:50;;;;;;;3.83;1.70;;;21.10;80.40;;;;;;5069848;28;20044;-63
2023/05/20 10:58:17;;;;;;;2.60;1.50;;;21.30;80.90;;;;;;5069901;28;20072;-64
2023/05/20 11:00:43;;;;;;;6.35;1.90;;;21.40;79.60;;;;;;5069691;28;20115;-64
2023/05/20 11:03:11;;;;;;;3.35;1.38;;;21.30;80.00;;;;;;5071069;28;20192;-62
2023/05/20 11:05:39;;;;;;;2.72;1.50;;;21.10;80.10;;;;;;5070725;28;20043;-63
2023/05/20 11:08:08;;;;;;;4.03;1.50;;;20.80;79.40;;;;;;5069519;28;20032;-63
2023/05/20 11:10:35;;;;;;;2.50;1.35;;;20.60;80.30;;;;;;5069591;28;20115;-61
2023/05/20 11:13:02;;;;;;;3.70;1.67;;;20.70;81.40;;;;;;5070570;28;20106;-62
2023/05/20 11:15:29;;;;;;;3.05;1.40;;;21.00;81.10;;;;;;5069370;28;20036;-63
2023/05/20 11:17:58;;;;;;;2.88;1.60;;;21.10;81.00;;;;;;5070440;28;20059;-62
2023/05/20 11:20:25;;;;;;;2.90;1.20;;;21.30;81.60;;;;;;5052811;28;20056;-63
2023/05/20 11:22:51;;;;;;;3.67;1.30;;;21.40;80.30;;;;;;5070788;28;20106;-62
2023/05/20 11:25:17;;;;;;;3.15;1.20;;;21.80;80.70;;;;;;5070350;28;20052;-64
2023/05/20 11:27:44;;;;;;;4.78;1.60;;;22.10;81.20;;;;;;5069262;28;20135;-63
2023/05/20 11:30:17;;;;;;;3.38;1.40;;;22.30;80.60;;;;;;5069152;28;20063;-61
2023/05/20 11:33:03;;;;;;;2.88;1.60;;;22.10;79.20;;;;;;5068813;28;20376;-64
2023/05/20 11:35:31;;;;;;;4.50;1.70;;;22.00;78.30;;;;;;5069871;28;20094;-64
2023/05/20 11:38:05;;;;;;;3.13;1.70;;;22.00;78.40;;;;;;5068385;28;20041;-64
2023/05/20 11:40:32;;;;;;;5.18;1.58;;;22.00;76.90;;;;;;5069028;28;20052;-63
2023/05/20 11:43:02;;;;;;;2.80;1.42;;;22.00;76.60;;;;;;5070068;28;20040;-63
2023/05/20 11:45:41;;;;;;;2.70;1.48;;;22.10;75.60;;;;;;5069929;28;20043;-63
2023/05/20 11:48:08;;;;;;;3.05;1.30;;;22.30;76.80;;;;;;5070230;28;20103;-64
2023/05/20 11:50:38;;;;;;;4.65;1.42;;;22.40;77.40;;;;;;5070145;28;20123;-62
2023/05/20 11:53:04;;;;;;;4.32;1.45;;;22.50;75.20;;;;;;5068756;28;20105;-63
2023/05/20 11:55:43;;;;;;;6.18;1.65;;;22.70;76.90;;;;;;5068794;28;20040;-63
2023/05/20 11:58:08;;;;;;;1.73;1.30;;;22.70;76.00;;;;;;5069036;28;20447;-64
2023/05/20 12:00:34;;;;;;;3.33;1.50;;;22.80;76.10;;;;;;5069814;28;20076;-64
2023/05/20 12:03:00;;;;;;;3.63;1.40;;;22.70;75.30;;;;;;5069831;28;20115;-61
2023/05/20 12:05:25;;;;;;;3.92;1.50;;;22.20;74.60;;;;;;5069732;28;20445;-63
2023/05/20 12:07:51;;;;;;;6.35;1.50;;;21.80;74.70;;;;;;5068785;28;20047;-64
2023/05/20 12:10:17;;;;;;;3.20;1.58;;;21.60;74.70;;;;;;5069778;28;20025;-61
2023/05/20 12:12:44;;;;;;;4.97;1.50;;;21.50;74.80;;;;;;5068535;28;20064;-62
2023/05/20 12:15:10;;;;;;;3.47;1.58;;;21.30;74.50;;;;;;5069841;28;20040;-64
2023/05/20 12:17:47;;;;;;;4.60;1.40;;;21.00;75.00;;;;;;5068381;28;20024;-62
2023/05/20 12:20:15;;;;;;;3.15;1.65;;;20.80;75.80;;;;;;5068640;28;20076;-65
2023/05/20 12:22:44;;;;;;;2.75;1.40;;;20.90;75.90;;;;;;5068131;28;20460;-65
2023/05/20 12:25:11;;;;;;;5.53;1.48;;;20.70;76.90;;;;;;5069576;28;20041;-64
2023/05/20 12:27:37;;;;;;;2.60;1.40;;;20.60;76.90;;;;;;5068082;28;20048;-64
2023/05/20 12:30:04;;;;;;;4.57;1.73;;;20.70;76.90;;;;;;5069607;28;20086;-64
2023/05/20 12:32:29;;;;;;;2.85;1.80;;;20.70;77.20;;;;;;5069399;28;20111;-64
2023/05/20 12:34:55;;;;;;;3.53;1.40;;;20.90;78.20;;;;;;5069473;28;20137;-63
2023/05/20 12:37:21;;;;;;;5.78;1.73;;;21.10;78.30;;;;;;5068060;28;20419;-61
2023/05/20 12:39:46;;;;;;;3.05;1.52;;;21.30;77.50;;;;;;5067993;28;20047;-64
2023/05/20 12:42:12;;;;;;;3.75;1.40;;;21.40;77.30;;;;;;5068537;28;20386;-63
2023/05/20 12:44:38;;;;;;;3.97;1.55;;;21.40;76.70;;;;;;5069377;28;20039;-63